Time;durP1;ratioP1;P1;durP2;ratioP2;P2;SDS_P1;SDS_P2;PMS_P1;PMS_P2;Temp;Humidity;BMP_temperature;BMP_pressure;BME280_temperature;BME280_humidity;BME280_pressure;Samples;Min_cycle;Max_cycle;Signal;HPM_P1;HPM_P2
2022/08/02 00:02:20;;;;;;;11.13;4.03;;;28.20;92.80;;;;;;5135951;27;20077;-71
2022/08/02 00:04:47;;;;;;;10.93;4.63;;;28.20;92.90;;;;;;5110223;27;20077;-72
2022/08/02 00:07:15;;;;;;;9.82;3.90;;;28.20;92.80;;;;;;5131729;27;20043;-71
2022/08/02 00:09:43;;;;;;;8.52;4.78;;;28.20;92.80;;;;;;5115555;27;20505;-71
2022/08/02 00:12:11;;;;;;;9.43;4.13;;;28.20;92.90;;;;;;5115156;27;20130;-71
2022/08/02 00:14:39;;;;;;;11.00;5.15;;;28.20;93.00;;;;;;5113986;27;20051;-71
2022/08/02 00:17:07;;;;;;;13.18;4.43;;;28.20;93.00;;;;;;5105429;27;20515;-71
2022/08/02 00:19:34;;;;;;;12.85;4.25;;;28.20;93.00;;;;;;5129587;27;20039;-71
2022/08/02 00:22:02;;;;;;;10.63;4.90;;;28.20;93.10;;;;;;5128289;27;20067;-71
2022/08/02 00:24:29;;;;;;;8.25;3.63;;;28.10;93.00;;;;;;5120959;27;20493;-72
2022/08/02 00:26:57;;;;;;;10.93;4.00;;;28.20;92.70;;;;;;5128207;27;20055;-71
2022/08/02 00:29:25;;;;;;;10.13;3.92;;;28.10;92.60;;;;;;5134992;27;20058;-71
2022/08/02 00:31:53;;;;;;;8.55;4.15;;;28.10;92.80;;;;;;5132251;27;20082;-71
2022/08/02 00:34:20;;;;;;;12.23;3.65;;;28.10;93.10;;;;;;5143809;27;20031;-71
2022/08/02 00:36:48;;;;;;;8.38;3.88;;;28.10;93.00;;;;;;5132545;27;20042;-71
2022/08/02 00:39:16;;;;;;;10.07;3.25;;;28.10;93.10;;;;;;5137102;27;20050;-71
2022/08/02 00:41:48;;;;;;;10.88;3.60;;;28.00;92.70;;;;;;5120717;27;20530;-71
2022/08/02 00:44:17;;;;;;;7.95;3.70;;;28.00;92.80;;;;;;5146330;27;20043;-71
2022/08/02 00:46:45;;;;;;;7.85;3.17;;;28.00;93.00;;;;;;5134432;27;20042;-72
2022/08/02 00:49:13;;;;;;;8.30;3.03;;;28.00;93.00;;;;;;5134240;27;20031;-71
2022/08/02 00:51:41;;;;;;;7.25;4.22;;;28.00;93.20;;;;;;5137029;27;20091;-71
2022/08/02 00:54:09;;;;;;;9.65;3.30;;;28.00;93.10;;;;;;5122221;27;20486;-71
2022/08/02 00:56:36;;;;;;;8.23;3.55;;;27.90;93.20;;;;;;5128065;27;20121;-71
2022/08/02 00:59:04;;;;;;;8.93;4.13;;;27.90;93.30;;;;;;5121147;27;20386;-72
2022/08/02 01:01:38;;;;;;;6.63;3.15;;;27.90;93.30;;;;;;5120543;27;20138;-70
2022/08/02 01:04:07;;;;;;;10.38;3.65;;;27.90;93.40;;;;;;5135950;27;20396;-72
2022/08/02 01:06:37;;;;;;;7.55;4.03;;;27.90;93.60;;;;;;5123625;27;20054;-72
2022/08/02 01:09:05;;;;;;;9.23;4.72;;;27.80;93.00;;;;;;5135195;27;20051;-71
2022/08/02 01:11:35;;;;;;;12.05;4.82;;;27.80;93.30;;;;;;5142070;27;20118;-72
2022/08/02 01:14:11;;;;;;;5.93;3.05;;;27.80;93.40;;;;;;5111101;27;20103;-72
2022/08/02 01:16:51;;;;;;;10.43;3.70;;;27.90;93.40;;;;;;5132410;27;20551;-73
2022/08/02 01:19:30;;;;;;;6.72;3.05;;;27.90;93.60;;;;;;5115048;27;20411;-71
2022/08/02 01:22:19;;;;;;;7.85;3.92;;;27.90;93.70;;;;;;5125984;27;20243;-72
2022/08/02 01:24:58;;;;;;;6.72;2.90;;;28.00;93.80;;;;;;5141345;27;20054;-71
2022/08/02 01:28:10;;;;;;;6.65;3.08;;;28.00;93.80;;;;;;5134549;27;20485;-72
2022/08/02 01:30:42;;;;;;;5.35;4.70;;;28.00;93.90;;;;;;5113939;27;20393;-71
2022/08/02 01:33:15;;;;;;;6.97;3.28;;;27.90;93.90;;;;;;5125004;27;20564;-71
2022/08/02 01:35:46;;;;;;;7.85;3.03;;;27.90;94.00;;;;;;5140040;27;20398;-71
2022/08/02 01:38:36;;;;;;;6.47;3.53;;;27.80;94.00;;;;;;5125431;27;20500;-72
2022/08/02 01:41:06;;;;;;;6.95;3.35;;;27.80;94.20;;;;;;5116873;27;20051;-71
2022/08/02 01:43:37;;;;;;;8.70;3.17;;;27.70;94.30;;;;;;5123558;27;20575;-71
2022/08/02 01:46:05;;;;;;;6.32;3.05;;;27.60;94.40;;;;;;5136217;27;20056;-72
2022/08/02 01:48:34;;;;;;;15.35;3.05;;;27.60;94.60;;;;;;5117360;27;20077;-72
2022/08/02 01:51:03;;;;;;;7.85;4.10;;;27.60;94.60;;;;;;5135550;27;20674;-72
2022/08/02 01:53:32;;;;;;;6.45;3.17;;;27.50;94.60;;;;;;5120233;27;20043;-71
2022/08/02 01:56:01;;;;;;;10.43;3.10;;;27.50;94.70;;;;;;5137613;27;20042;-71
2022/08/02 01:58:33;;;;;;;11.18;3.30;;;27.50;94.70;;;;;;5136198;27;20054;-71
2022/08/02 02:01:01;;;;;;;11.60;3.95;;;27.50;94.70;;;;;;5120349;27;20077;-71
2022/08/02 02:03:32;;;;;;;8.55;3.03;;;27.40;94.70;;;;;;5153617;27;20073;-72
2022/08/02 02:06:02;;;;;;;5.50;3.10;;;27.40;94.70;;;;;;5118371;27;20057;-71
2022/08/02 02:08:35;;;;;;;9.73;3.67;;;27.40;94.70;;;;;;5135251;27;20514;-71
2022/08/02 02:11:03;;;;;;;7.53;3.38;;;27.40;94.80;;;;;;5118581;27;20034;-71
2022/08/02 02:13:31;;;;;;;8.38;3.50;;;27.40;94.80;;;;;;5118080;27;20605;-71
2022/08/02 02:16:03;;;;;;;7.95;2.88;;;27.30;94.90;;;;;;5100553;27;20046;-71
2022/08/02 02:18:37;;;;;;;6.45;3.63;;;27.30;94.80;;;;;;5102979;27;20042;-71
2022/08/02 02:21:05;;;;;;;8.52;3.30;;;27.40;94.90;;;;;;5137107;27;20042;-71
2022/08/02 02:23:33;;;;;;;6.40;3.03;;;27.40;94.80;;;;;;5119887;27;20035;-72
2022/08/02 02:26:03;;;;;;;8.10;3.25;;;27.40;94.70;;;;;;5136475;27;20047;-71
2022/08/02 02:28:33;;;;;;;6.93;3.60;;;27.30;94.70;;;;;;5119393;27;20042;-72
2022/08/02 02:31:05;;;;;;;7.80;3.53;;;27.40;94.70;;;;;;5119728;27;20489;-71
2022/08/02 02:33:40;;;;;;;9.35;4.05;;;27.30;94.70;;;;;;5119597;27;20080;-72
2022/08/02 02:36:09;;;;;;;5.30;3.30;;;27.30;94.70;;;;;;5136518;27;20813;-71
2022/08/02 02:38:38;;;;;;;6.70;2.90;;;27.30;94.70;;;;;;5102863;27;20434;-71
2022/08/02 02:41:06;;;;;;;15.05;3.88;;;27.30;94.70;;;;;;5136571;27;20050;-71
2022/08/02 02:43:36;;;;;;;7.20;3.22;;;27.30;94.70;;;;;;5119396;27;20046;-72
2022/08/02 02:46:06;;;;;;;5.93;3.00;;;27.30;94.70;;;;;;5155214;27;20495;-71
2022/08/02 02:48:35;;;;;;;13.77;4.18;;;27.30;94.70;;;;;;5156890;27;20075;-71
2022/08/02 02:51:06;;;;;;;6.60;3.28;;;27.30;94.90;;;;;;5139373;27;20046;-71
2022/08/02 02:53:36;;;;;;;8.68;4.60;;;27.30;94.70;;;;;;5122603;27;20042;-72
2022/08/02 02:56:04;;;;;;;7.72;3.28;;;27.30;94.60;;;;;;5139287;27;20077;-71
2022/08/02 02:58:32;;;;;;;5.72;3.83;;;27.30;94.50;;;;;;5139764;27;20042;-71
2022/08/02 03:03:46;;;;;;;;;;;27.30;94.40;;;;;;5160125;27;20049;-71
2022/08/02 03:06:14;;;;;;;7.00;3.33;;;27.30;94.40;;;;;;5118806;27;20017;-72
2022/08/02 03:08:42;;;;;;;13.48;4.30;;;27.40;94.40;;;;;;5154686;27;20047;-71
2022/08/02 03:11:11;;;;;;;10.45;3.30;;;27.30;94.30;;;;;;5154499;27;20398;-72
2022/08/02 03:13:39;;;;;;;9.13;3.63;;;27.30;94.30;;;;;;5154174;27;20039;-72
2022/08/02 03:16:07;;;;;;;7.55;4.78;;;27.30;94.20;;;;;;5118569;27;20085;-71
2022/08/02 03:18:37;;;;;;;6.30;4.07;;;27.30;94.20;;;;;;5101769;27;20038;-71
2022/08/02 03:21:08;;;;;;;8.82;3.33;;;27.30;94.20;;;;;;5135739;27;20053;-71
2022/08/02 03:23:35;;;;;;;5.70;4.10;;;27.30;94.10;;;;;;5135786;27;20043;-72
2022/08/02 03:26:03;;;;;;;7.70;3.63;;;27.30;94.20;;;;;;5135502;27;20046;-71
2022/08/02 03:28:31;;;;;;;7.18;3.97;;;27.30;94.20;;;;;;5118571;27;20031;-71
2022/08/02 03:31:00;;;;;;;6.60;3.72;;;27.30;94.20;;;;;;5153821;27;20042;-71
2022/08/02 03:33:29;;;;;;;8.13;4.05;;;27.30;94.20;;;;;;5159631;27;20042;-72
2022/08/02 03:36:00;;;;;;;4.75;3.65;;;27.30;94.30;;;;;;5155759;27;20068;-71
2022/08/02 03:38:31;;;;;;;7.43;4.68;;;27.20;94.30;;;;;;5156051;27;20506;-73
2022/08/02 03:41:01;;;;;;;9.38;4.18;;;27.20;94.20;;;;;;5138640;27;20399;-71
2022/08/02 03:43:29;;;;;;;8.30;4.65;;;27.20;94.40;;;;;;5174684;27;20046;-72
2022/08/02 03:45:57;;;;;;;6.72;3.95;;;27.20;94.40;;;;;;5155587;27;20107;-71
2022/08/02 03:48:27;;;;;;;12.48;4.43;;;27.20;94.30;;;;;;5138658;27;20074;-71
2022/08/02 03:50:55;;;;;;;6.97;3.47;;;27.20;94.30;;;;;;5156239;27;20046;-71
2022/08/02 03:53:23;;;;;;;12.43;4.22;;;27.20;94.20;;;;;;5138247;27;20564;-72
2022/08/02 03:55:52;;;;;;;8.88;4.18;;;27.20;94.20;;;;;;5155704;27;20045;-72
2022/08/02 03:58:23;;;;;;;8.13;4.07;;;27.30;94.10;;;;;;5156098;27;20038;-72
2022/08/02 04:00:55;;;;;;;9.02;4.60;;;27.30;94.20;;;;;;5138736;27;20129;-71
2022/08/02 04:03:23;;;;;;;7.90;3.72;;;27.30;94.10;;;;;;5155612;27;20484;-72
2022/08/02 04:05:51;;;;;;;12.85;4.10;;;27.30;94.10;;;;;;5121629;27;20433;-71
2022/08/02 04:08:19;;;;;;;6.78;3.92;;;27.30;94.10;;;;;;5173929;27;20127;-71
2022/08/02 04:13:36;;;;;;;6.18;4.32;;;27.30;94.00;;;;;;5155739;27;20038;-71
2022/08/02 04:16:12;;;;;;;9.55;4.20;;;27.30;94.00;;;;;;5138258;27;20087;-72
2022/08/02 04:18:45;;;;;;;12.88;4.00;;;27.30;94.00;;;;;;5174112;27;20587;-72
2022/08/02 04:21:16;;;;;;;9.60;3.83;;;27.40;94.00;;;;;;5138300;27;20178;-72
2022/08/02 04:23:46;;;;;;;10.15;3.83;;;27.40;93.90;;;;;;5138121;27;20145;-71
2022/08/02 04:26:14;;;;;;;5.85;4.13;;;27.50;93.90;;;;;;5137858;27;20045;-71
2022/08/02 04:28:42;;;;;;;6.35;3.38;;;27.50;93.80;;;;;;5155515;27;20121;-71
2022/08/02 04:31:10;;;;;;;9.45;4.50;;;27.60;93.80;;;;;;5132603;27;20049;-72
2022/08/02 04:33:38;;;;;;;9.07;3.67;;;27.70;93.80;;;;;;5134208;27;20763;-71
2022/08/02 04:36:06;;;;;;;9.27;4.88;;;27.70;93.70;;;;;;5117107;27;20419;-71
2022/08/02 04:38:34;;;;;;;7.43;3.78;;;27.80;93.70;;;;;;5152529;27;20041;-71
2022/08/02 04:41:01;;;;;;;8.13;4.30;;;27.90;93.60;;;;;;5134286;27;20053;-71
2022/08/02 04:43:29;;;;;;;17.00;5.65;;;28.00;93.60;;;;;;5117211;27;20047;-71
2022/08/02 04:45:56;;;;;;;10.30;4.38;;;28.10;93.50;;;;;;5134064;27;20387;-71
2022/08/02 04:48:24;;;;;;;10.70;4.03;;;28.20;93.40;;;;;;5152528;27;20054;-72
2022/08/02 04:50:52;;;;;;;15.45;4.68;;;28.30;93.40;;;;;;5151141;27;20042;-71
2022/08/02 04:53:20;;;;;;;12.38;4.43;;;28.40;93.30;;;;;;5133160;27;20054;-71
2022/08/02 04:55:47;;;;;;;9.95;4.38;;;28.50;93.20;;;;;;5117297;27;20062;-71
2022/08/02 04:58:15;;;;;;;11.23;4.30;;;28.70;93.20;;;;;;5152025;27;20042;-71
2022/08/02 05:01:02;;;;;;;8.65;3.92;;;28.80;93.00;;;;;;5119588;27;20035;-71
2022/08/02 05:03:30;;;;;;;9.45;4.15;;;28.90;92.90;;;;;;5117184;27;20495;-71
2022/08/02 05:05:59;;;;;;;10.38;3.92;;;29.00;92.80;;;;;;5133805;27;20057;-71
2022/08/02 05:08:27;;;;;;;7.95;4.00;;;29.10;92.50;;;;;;5116934;27;20046;-71
2022/08/02 05:10:54;;;;;;;7.15;4.28;;;29.20;92.30;;;;;;5133761;27;20038;-71
2022/08/02 05:13:22;;;;;;;5.70;3.38;;;29.40;91.60;;;;;;5152345;27;20643;-72
2022/08/02 05:15:49;;;;;;;7.97;3.70;;;29.50;91.20;;;;;;5152231;27;20118;-71
2022/08/02 05:18:17;;;;;;;7.70;4.22;;;29.60;90.80;;;;;;5150381;27;20047;-71
2022/08/02 05:20:45;;;;;;;14.13;4.57;;;29.70;90.50;;;;;;5133982;27;20074;-72
2022/08/02 05:23:12;;;;;;;7.50;4.22;;;29.70;90.40;;;;;;5118176;27;20035;-71
2022/08/02 05:25:40;;;;;;;7.60;3.70;;;29.90;90.10;;;;;;5138117;27;20050;-71
2022/08/02 05:28:08;;;;;;;7.90;3.50;;;30.00;89.60;;;;;;5138053;27;20042;-71
2022/08/02 05:30:37;;;;;;;6.25;3.92;;;30.20;89.30;;;;;;5137872;27;20095;-71
2022/08/02 05:33:05;;;;;;;5.07;2.80;;;30.30;89.10;;;;;;5156104;27;20035;-72
2022/08/02 05:35:33;;;;;;;8.65;3.58;;;30.50;88.70;;;;;;5137889;27;20046;-71
2022/08/02 05:38:01;;;;;;;6.38;3.55;;;30.60;88.20;;;;;;5137327;27;20031;-71
2022/08/02 05:40:28;;;;;;;6.38;3.42;;;30.70;87.80;;;;;;5137230;27;20050;-71
2022/08/02 05:42:56;;;;;;;5.15;4.00;;;30.80;87.50;;;;;;5137639;27;20138;-71
2022/08/02 05:45:23;;;;;;;6.53;2.90;;;31.00;87.40;;;;;;5137505;27;20041;-71
2022/08/02 05:47:51;;;;;;;7.32;3.35;;;31.00;86.70;;;;;;5137454;27;20480;-71
2022/08/02 05:50:19;;;;;;;5.90;3.40;;;31.10;86.30;;;;;;5120662;27;20130;-72
2022/08/02 05:53:04;;;;;;;8.10;3.30;;;31.20;85.80;;;;;;5155928;27;20046;-71
2022/08/02 05:56:00;;;;;;;6.65;3.40;;;31.30;84.90;;;;;;5155769;27;20039;-72
2022/08/02 05:58:48;;;;;;;6.82;3.20;;;31.40;84.30;;;;;;5120106;27;20105;-71
2022/08/02 06:01:26;;;;;;;7.82;3.47;;;31.50;83.10;;;;;;5137400;27;20076;-72
2022/08/02 06:03:58;;;;;;;7.03;3.03;;;31.60;82.30;;;;;;5155699;27;20082;-71
2022/08/02 06:06:31;;;;;;;5.90;3.53;;;31.60;80.40;;;;;;5137551;27;20089;-72
2022/08/02 06:09:02;;;;;;;4.90;2.70;;;31.60;79.60;;;;;;5155889;27;20035;-71
2022/08/02 06:11:42;;;;;;;7.40;2.90;;;31.60;78.50;;;;;;5120555;27;20153;-71
2022/08/02 06:14:11;;;;;;;5.22;3.03;;;31.70;78.10;;;;;;5137026;27;20062;-71
2022/08/02 06:16:39;;;;;;;4.68;2.85;;;31.80;77.00;;;;;;5136581;27;20062;-71
2022/08/02 06:19:07;;;;;;;6.18;3.08;;;31.80;75.40;;;;;;5136755;27;20571;-71
2022/08/02 06:21:37;;;;;;;5.63;2.97;;;31.70;75.30;;;;;;5137045;27;20488;-72
2022/08/02 06:24:08;;;;;;;4.18;3.13;;;31.90;75.70;;;;;;5119927;27;20060;-72
2022/08/02 06:26:36;;;;;;;5.03;3.40;;;32.00;75.50;;;;;;5136747;27;20445;-71
2022/08/02 06:29:04;;;;;;;5.30;3.25;;;32.10;74.40;;;;;;5137109;27;20061;-71
2022/08/02 06:31:32;;;;;;;9.48;3.22;;;32.20;73.00;;;;;;5102901;27;20039;-71
2022/08/02 06:33:59;;;;;;;7.03;2.80;;;32.30;72.40;;;;;;5119347;27;20062;-71
2022/08/02 06:36:33;;;;;;;4.95;3.03;;;32.40;72.10;;;;;;5155017;27;20434;-72
2022/08/02 06:39:04;;;;;;;5.45;2.80;;;32.40;71.50;;;;;;5136687;27;20039;-71
2022/08/02 06:41:41;;;;;;;5.18;2.70;;;32.40;70.20;;;;;;5098842;27;20051;-71
2022/08/02 06:44:21;;;;;;;4.75;2.80;;;32.50;69.90;;;;;;5134188;27;20044;-71
2022/08/02 06:47:08;;;;;;;4.20;3.08;;;32.50;70.60;;;;;;5118792;27;20393;-72
2022/08/02 06:49:40;;;;;;;6.32;3.35;;;32.60;70.40;;;;;;5132850;27;20130;-71
2022/08/02 06:52:07;;;;;;;5.75;2.60;;;32.60;70.40;;;;;;5132755;27;20103;-72
2022/08/02 06:54:37;;;;;;;3.83;2.85;;;32.60;68.70;;;;;;5132877;27;20051;-71
2022/08/02 06:57:05;;;;;;;4.95;2.90;;;32.60;68.00;;;;;;5115806;27;20039;-71
2022/08/02 06:59:33;;;;;;;5.47;2.60;;;32.60;68.30;;;;;;5132553;27;20080;-72
2022/08/02 07:02:01;;;;;;;7.00;2.60;;;32.70;68.30;;;;;;5133565;27;20047;-71
2022/08/02 07:04:29;;;;;;;5.85;3.17;;;32.80;68.30;;;;;;5133739;27;20043;-71
2022/08/02 07:06:56;;;;;;;6.15;2.50;;;32.80;67.70;;;;;;5115531;27;20145;-71
2022/08/02 07:09:24;;;;;;;3.92;2.63;;;32.70;65.50;;;;;;5115591;27;20035;-71
2022/08/02 07:11:52;;;;;;;10.88;3.13;;;32.60;66.50;;;;;;5115739;27;20092;-71
2022/08/02 07:14:20;;;;;;;4.00;2.80;;;32.60;65.30;;;;;;5123649;27;20047;-71
2022/08/02 07:16:48;;;;;;;3.80;2.95;;;32.60;66.80;;;;;;5133128;27;20050;-71
2022/08/02 07:19:16;;;;;;;4.30;2.40;;;32.70;66.00;;;;;;5112767;27;20055;-71
2022/08/02 07:21:45;;;;;;;4.80;3.15;;;32.60;65.10;;;;;;5147432;27;20134;-72
2022/08/02 07:24:12;;;;;;;6.03;3.40;;;32.60;65.70;;;;;;5134451;27;20392;-71
2022/08/02 07:26:40;;;;;;;6.88;3.10;;;32.60;65.40;;;;;;5134571;27;20034;-71
2022/08/02 07:29:22;;;;;;;5.35;2.97;;;32.70;64.70;;;;;;5138784;27;20039;-71
2022/08/02 07:31:50;;;;;;;8.80;2.65;;;32.60;64.10;;;;;;5124144;27;20045;-71
2022/08/02 07:34:17;;;;;;;4.78;2.85;;;32.60;65.00;;;;;;5114889;27;20074;-71
2022/08/02 07:36:45;;;;;;;4.65;3.03;;;32.60;64.20;;;;;;5098184;27;20047;-72
2022/08/02 07:39:13;;;;;;;7.80;2.53;;;32.70;64.00;;;;;;5131470;27;20053;-72
2022/08/02 07:41:40;;;;;;;6.68;2.92;;;32.70;63.40;;;;;;5135540;27;20481;-71
2022/08/02 07:44:08;;;;;;;4.55;2.25;;;32.70;63.30;;;;;;5144831;27;20580;-71
2022/08/02 07:46:35;;;;;;;5.53;3.53;;;32.70;63.70;;;;;;5139176;27;20066;-71
2022/08/02 07:49:03;;;;;;;4.22;2.97;;;32.80;64.80;;;;;;5118854;27;20511;-71
2022/08/02 07:51:32;;;;;;;7.13;3.42;;;32.70;66.30;;;;;;5137261;27;20067;-71
2022/08/02 07:53:59;;;;;;;3.80;2.83;;;32.70;67.50;;;;;;5104229;27;20065;-71
2022/08/02 07:56:27;;;;;;;5.38;3.00;;;32.80;67.70;;;;;;5128423;27;20058;-71
2022/08/02 07:58:55;;;;;;;10.27;4.60;;;32.80;67.30;;;;;;5134448;27;20392;-71
2022/08/02 08:01:23;;;;;;;5.40;2.83;;;32.90;66.40;;;;;;5130294;27;20551;-71
2022/08/02 08:03:50;;;;;;;12.95;4.32;;;32.90;66.70;;;;;;5131503;27;20053;-72
2022/08/02 08:06:18;;;;;;;4.82;2.95;;;33.10;67.50;;;;;;5142744;27;20130;-71
2022/08/02 08:08:46;;;;;;;8.00;4.28;;;33.20;66.60;;;;;;5134861;27;20042;-71
2022/08/02 08:11:13;;;;;;;4.72;2.80;;;33.40;66.80;;;;;;5136216;27;20034;-71
2022/08/02 08:13:41;;;;;;;4.53;2.97;;;33.40;66.20;;;;;;5131332;27;20050;-72
2022/08/02 08:16:09;;;;;;;30.80;24.73;;;33.40;65.80;;;;;;5144557;27;20384;-71
2022/08/02 08:18:37;;;;;;;15.38;7.15;;;33.50;65.50;;;;;;5135436;27;20171;-71
2022/08/02 08:21:05;;;;;;;4.90;3.17;;;33.60;65.80;;;;;;5140215;27;20046;-71
2022/08/02 08:23:34;;;;;;;5.90;3.90;;;33.70;64.40;;;;;;5167542;27;20038;-72
2022/08/02 08:26:03;;;;;;;5.55;3.25;;;33.70;64.00;;;;;;5135087;27;20043;-71
2022/08/02 08:28:30;;;;;;;4.38;3.03;;;33.70;63.70;;;;;;5139773;27;20449;-72
2022/08/02 08:30:58;;;;;;;5.00;3.53;;;33.70;63.80;;;;;;5117622;27;20057;-72
2022/08/02 08:33:26;;;;;;;8.25;3.30;;;33.70;64.40;;;;;;5140631;27;20042;-71
2022/08/02 08:35:54;;;;;;;4.68;3.28;;;33.70;65.40;;;;;;5141224;27;20077;-72
2022/08/02 08:38:22;;;;;;;5.68;3.10;;;33.70;65.30;;;;;;5102559;27;20408;-72
2022/08/02 08:40:50;;;;;;;5.63;3.00;;;33.80;64.90;;;;;;5145688;27;20042;-72
2022/08/02 08:43:18;;;;;;;3.35;2.67;;;34.00;64.70;;;;;;5117292;27;20069;-72
2022/08/02 08:45:47;;;;;;;6.18;3.35;;;34.00;63.60;;;;;;5116918;27;20050;-73
2022/08/02 08:48:17;;;;;;;4.13;2.97;;;34.10;64.50;;;;;;5125302;27;20603;-74
2022/08/02 08:51:07;;;;;;;6.57;2.80;;;34.10;64.40;;;;;;5151223;27;20035;-72
2022/08/02 08:53:41;;;;;;;4.57;2.65;;;34.10;64.10;;;;;;5151985;27;20046;-73
2022/08/02 08:56:11;;;;;;;5.22;2.85;;;34.10;63.50;;;;;;5139136;27;20077;-72
2022/08/02 08:58:43;;;;;;;3.60;2.67;;;34.00;62.80;;;;;;5131194;27;20042;-72
2022/08/02 09:01:13;;;;;;;4.60;2.83;;;33.80;64.00;;;;;;5115750;27;20038;-72
2022/08/02 09:03:42;;;;;;;5.70;2.42;;;33.90;63.80;;;;;;5118045;27;20043;-72
2022/08/02 09:06:10;;;;;;;5.63;2.90;;;33.80;63.50;;;;;;5157940;27;20396;-73
2022/08/02 09:08:38;;;;;;;4.75;2.92;;;33.90;64.50;;;;;;5156777;27;20604;-73
2022/08/02 09:11:16;;;;;;;5.15;2.40;;;34.00;64.20;;;;;;5159466;27;20058;-72
2022/08/02 09:13:53;;;;;;;5.22;3.28;;;33.90;63.60;;;;;;5129630;27;20437;-72
2022/08/02 09:16:36;;;;;;;3.47;2.80;;;33.90;63.80;;;;;;5124861;27;20259;-72
2022/08/02 09:19:24;;;;;;;5.82;3.13;;;33.90;65.30;;;;;;5133911;27;20065;-72
2022/08/02 09:22:02;;;;;;;10.25;3.08;;;33.90;63.80;;;;;;5120028;27;20047;-71
2022/08/02 09:24:47;;;;;;;4.65;3.15;;;33.90;64.50;;;;;;5108771;27;20068;-72
2022/08/02 09:27:17;;;;;;;4.22;2.83;;;33.90;65.10;;;;;;5135016;27;20495;-72
2022/08/02 09:29:50;;;;;;;4.80;2.83;;;34.00;65.40;;;;;;5124305;27;20030;-71
2022/08/02 09:32:44;;;;;;;5.03;3.03;;;34.10;63.50;;;;;;5138944;27;20046;-71
2022/08/02 09:35:12;;;;;;;4.32;2.72;;;34.00;63.00;;;;;;5138726;27;20050;-71
2022/08/02 09:37:40;;;;;;;6.38;2.75;;;34.10;63.00;;;;;;5116905;27;20054;-71
2022/08/02 09:40:10;;;;;;;6.00;3.20;;;34.20;63.90;;;;;;5120132;28;20056;-72
2022/08/02 09:42:57;;;;;;;4.88;3.38;;;34.20;63.10;;;;;;5137553;27;20096;-72
2022/08/02 09:45:35;;;;;;;4.20;2.95;;;34.10;62.50;;;;;;5140398;27;20082;-72
2022/08/02 09:48:07;;;;;;;5.72;3.00;;;34.20;62.50;;;;;;5139160;27;20450;-72
2022/08/02 09:50:39;;;;;;;3.88;2.30;;;34.10;60.40;;;;;;5131567;27;20618;-72
2022/08/02 09:53:15;;;;;;;6.15;3.30;;;33.80;60.20;;;;;;5137730;27;20039;-71
2022/08/02 09:55:53;;;;;;;8.60;3.50;;;33.70;59.00;;;;;;5128604;28;20435;-72
2022/08/02 09:58:21;;;;;;;3.45;2.10;;;33.70;61.50;;;;;;5139739;27;20061;-72
2022/08/02 10:01:00;;;;;;;3.17;2.53;;;33.90;60.40;;;;;;5126397;28;20043;-72
2022/08/02 10:03:28;;;;;;;3.35;2.65;;;34.00;60.90;;;;;;5130463;27;20051;-71
2022/08/02 10:06:00;;;;;;;4.47;2.90;;;34.10;60.70;;;;;;5112884;28;20047;-72
2022/08/02 10:08:29;;;;;;;4.53;3.35;;;34.00;59.70;;;;;;5132810;27;20054;-71
2022/08/02 10:11:02;;;;;;;3.78;2.58;;;34.00;59.60;;;;;;5128546;27;20065;-72
2022/08/02 10:13:34;;;;;;;5.45;2.65;;;34.10;59.00;;;;;;5122529;27;20163;-72
2022/08/02 10:16:03;;;;;;;3.63;2.72;;;34.20;58.90;;;;;;5139596;27;20058;-71
2022/08/02 10:18:31;;;;;;;3.33;2.40;;;34.10;58.90;;;;;;5145571;27;20111;-71
2022/08/02 10:21:14;;;;;;;3.55;2.67;;;34.00;59.20;;;;;;5144135;27;20113;-71
2022/08/02 10:23:43;;;;;;;5.70;3.10;;;34.00;59.60;;;;;;5147291;27;20146;-72
2022/08/02 10:26:19;;;;;;;7.47;3.35;;;34.10;60.40;;;;;;5119373;27;20413;-71
2022/08/02 10:28:48;;;;;;;4.45;2.72;;;34.10;59.30;;;;;;5118390;27;20051;-71
2022/08/02 10:31:21;;;;;;;6.28;2.97;;;34.10;58.50;;;;;;5128358;27;20055;-71
2022/08/02 10:33:51;;;;;;;4.93;3.00;;;34.00;58.90;;;;;;5117677;27;20074;-71
2022/08/02 10:36:22;;;;;;;4.55;2.83;;;34.00;59.20;;;;;;5125372;27;20050;-71
2022/08/02 10:38:50;;;;;;;4.38;2.53;;;34.00;58.60;;;;;;5145756;27;20043;-71
2022/08/02 10:41:48;;;;;;;3.70;2.92;;;34.10;59.40;;;;;;5121153;27;20443;-71
2022/08/02 10:44:27;;;;;;;8.65;3.08;;;34.20;58.60;;;;;;5128105;27;20047;-72
2022/08/02 10:47:13;;;;;;;3.65;3.03;;;34.10;57.70;;;;;;5128649;27;20053;-72
2022/08/02 10:49:56;;;;;;;3.92;2.90;;;34.10;58.50;;;;;;5131404;27;20350;-71
2022/08/02 10:52:28;;;;;;;3.50;2.67;;;34.10;58.40;;;;;;5128028;27;20055;-72
2022/08/02 10:55:01;;;;;;;4.65;3.08;;;34.10;58.30;;;;;;5132998;27;20137;-72
2022/08/02 10:57:32;;;;;;;4.13;2.63;;;34.10;58.30;;;;;;5139689;27;20082;-71
2022/08/02 11:00:11;;;;;;;4.07;3.05;;;33.90;57.40;;;;;;5138383;27;20511;-71
2022/08/02 11:02:45;;;;;;;3.35;2.33;;;33.80;57.00;;;;;;5133551;27;20034;-71
2022/08/02 11:05:32;;;;;;;3.43;2.57;;;33.80;57.50;;;;;;5139079;27;20031;-71
2022/08/02 11:08:20;;;;;;;4.75;2.75;;;33.90;57.40;;;;;;5122106;27;20050;-71
2022/08/02 11:10:47;;;;;;;4.75;2.78;;;33.90;58.50;;;;;;5141512;27;20468;-71
2022/08/02 11:13:18;;;;;;;5.10;2.95;;;33.80;59.50;;;;;;5145052;27;20130;-71
2022/08/02 11:16:01;;;;;;;4.25;3.03;;;33.80;59.10;;;;;;5149315;27;20118;-71
2022/08/02 11:18:50;;;;;;;4.18;2.70;;;33.90;59.40;;;;;;5125596;27;20129;-71
2022/08/02 11:21:25;;;;;;;3.83;2.40;;;33.80;59.70;;;;;;5131428;27;20078;-72
2022/08/02 11:23:54;;;;;;;4.55;2.67;;;34.00;59.30;;;;;;5131539;27;20495;-71
2022/08/02 11:26:28;;;;;;;3.50;2.78;;;34.00;59.70;;;;;;5139866;27;20400;-72
2022/08/02 11:28:58;;;;;;;3.40;2.47;;;34.00;59.90;;;;;;5105150;27;20485;-71
2022/08/02 11:31:27;;;;;;;7.35;2.83;;;34.00;58.90;;;;;;5128514;27;20043;-72
2022/08/02 11:33:55;;;;;;;4.90;2.85;;;34.00;59.70;;;;;;5115882;27;20042;-74
2022/08/02 11:36:23;;;;;;;6.07;3.20;;;34.00;59.70;;;;;;5126472;27;20492;-71
2022/08/02 11:39:08;;;;;;;3.65;2.72;;;34.00;59.10;;;;;;5137719;27;20046;-72
2022/08/02 11:41:37;;;;;;;5.15;3.03;;;34.00;58.60;;;;;;5132757;27;20122;-71
2022/08/02 11:44:05;;;;;;;3.38;2.97;;;33.90;59.30;;;;;;5129428;27;20082;-72
2022/08/02 11:46:34;;;;;;;4.88;2.90;;;33.90;59.30;;;;;;5145606;27;20037;-72
2022/08/02 11:49:17;;;;;;;4.30;3.40;;;33.90;59.10;;;;;;5142251;27;20051;-72
2022/08/02 11:51:52;;;;;;;3.08;2.58;;;33.80;58.10;;;;;;5139989;27;20066;-72
2022/08/02 11:54:30;;;;;;;3.55;2.60;;;33.90;58.90;;;;;;5117593;27;20385;-72
2022/08/02 11:57:10;;;;;;;3.90;3.08;;;33.80;59.40;;;;;;5125442;27;20043;-72
2022/08/02 11:59:42;;;;;;;5.40;2.63;;;33.70;60.20;;;;;;5139311;27;20048;-71
2022/08/02 12:02:11;;;;;;;9.98;3.00;;;33.70;60.20;;;;;;5123860;27;20038;-71
2022/08/02 12:04:40;;;;;;;4.60;2.88;;;33.70;60.40;;;;;;5140827;27;20035;-72
2022/08/02 12:07:09;;;;;;;3.67;2.67;;;33.70;59.50;;;;;;5132417;27;20084;-72
2022/08/02 12:09:37;;;;;;;4.32;3.10;;;33.70;59.90;;;;;;5136999;27;20548;-73
2022/08/02 12:12:08;;;;;;;4.30;2.53;;;33.70;59.70;;;;;;5144218;27;20511;-71
2022/08/02 12:14:43;;;;;;;3.92;2.78;;;33.60;59.60;;;;;;5144478;27;20047;-73
2022/08/02 12:20:03;;;;;;;6.35;2.90;;;33.60;60.50;;;;;;5126886;27;20116;-72
2022/08/02 12:22:36;;;;;;;4.60;3.17;;;33.50;59.80;;;;;;5119124;27;20461;-72
2022/08/02 12:25:19;;;;;;;4.43;2.75;;;33.50;60.30;;;;;;5110277;27;20075;-73
2022/08/02 12:27:51;;;;;;;3.95;3.08;;;33.50;60.40;;;;;;5145329;27;20053;-74
2022/08/02 12:30:22;;;;;;;3.10;2.40;;;33.50;60.90;;;;;;5123376;27;20047;-72
2022/08/02 12:32:53;;;;;;;3.97;2.65;;;33.50;61.40;;;;;;5110075;27;20096;-72
2022/08/02 12:35:29;;;;;;;5.00;2.88;;;33.50;61.20;;;;;;5136907;27;20062;-72
2022/08/02 12:38:10;;;;;;;3.50;2.60;;;33.40;60.60;;;;;;5136652;27;20076;-72
2022/08/02 12:40:42;;;;;;;5.13;2.80;;;33.30;61.40;;;;;;5112696;27;20485;-72
2022/08/02 12:43:19;;;;;;;7.38;3.08;;;33.20;61.70;;;;;;5127246;27;20500;-73
2022/08/02 12:45:53;;;;;;;8.40;4.13;;;33.10;61.50;;;;;;5144847;27;20129;-74
2022/08/02 12:48:35;;;;;;;4.68;3.28;;;33.10;61.30;;;;;;5148090;27;20529;-74
2022/08/02 12:51:46;;;;;;;4.60;2.88;;;33.00;62.60;;;;;;5128473;27;20042;-74
2022/08/02 12:54:23;;;;;;;6.10;3.55;;;33.00;63.00;;;;;;5142396;27;20050;-72
2022/08/02 12:56:54;;;;;;;4.53;2.55;;;33.10;63.20;;;;;;5136347;27;20043;-73
2022/08/02 12:59:41;;;;;;;5.22;3.22;;;33.00;63.40;;;;;;5123841;27;20408;-73
2022/08/02 13:02:15;;;;;;;3.35;3.00;;;33.00;63.50;;;;;;5141055;27;20045;-72
2022/08/02 13:04:51;;;;;;;5.18;2.80;;;33.10;64.00;;;;;;5127787;27;20042;-72
2022/08/02 13:07:22;;;;;;;5.57;2.90;;;33.10;63.70;;;;;;5114441;28;20047;-72
2022/08/02 13:09:54;;;;;;;5.00;2.97;;;33.10;63.50;;;;;;5090392;27;20042;-71
2022/08/02 13:12:25;;;;;;;5.18;2.80;;;33.10;62.30;;;;;;5135827;27;20558;-70
2022/08/02 13:14:56;;;;;;;3.78;2.97;;;32.90;62.20;;;;;;5125565;27;20047;-71
2022/08/02 13:17:26;;;;;;;7.13;3.05;;;33.00;63.50;;;;;;5141729;27;20066;-71